createdAt,value
2023-04-15T00:00:59.824Z,158.00
2023-04-15T00:03:28.664Z,138.27
2023-04-15T00:05:59.876Z,139.00
2023-04-15T00:08:30.190Z,145.10
2023-04-15T00:11:02.617Z,146.20
2023-04-15T00:13:31.192Z,152.20
2023-04-15T00:15:59.883Z,149.20
2023-04-15T00:18:29.516Z,142.00
2023-04-15T00:20:58.163Z,145.50
2023-04-15T00:23:26.635Z,147.90
2023-04-15T00:25:56.915Z,145.60
2023-04-15T00:28:25.253Z,145.47
2023-04-15T00:30:53.757Z,147.73
2023-04-15T00:33:22.175Z,141.83
2023-04-15T00:35:50.915Z,137.20
2023-04-15T00:38:19.587Z,135.10
2023-04-15T00:40:48.553Z,145.50
2023-04-15T00:43:19.297Z,144.40
2023-04-15T00:45:48.158Z,142.93
2023-04-15T00:48:17.681Z,159.90
2023-04-15T00:50:46.400Z,129.13
2023-04-15T00:53:14.680Z,147.87
2023-04-15T00:55:43.579Z,148.13
2023-04-15T00:58:12.017Z,145.10
2023-04-15T01:00:42.054Z,142.43
2023-04-15T01:03:10.489Z,146.47
2023-04-15T01:05:39.923Z,143.63
2023-04-15T01:08:08.283Z,135.97
2023-04-15T01:10:37.879Z,142.53
2023-04-15T01:13:06.798Z,147.87
2023-04-15T01:15:37.608Z,149.03
2023-04-15T01:18:08.434Z,144.43
2023-04-15T01:20:39.883Z,149.43
2023-04-15T01:23:08.516Z,143.60
2023-04-15T01:25:38.495Z,148.63
2023-04-15T01:28:06.931Z,152.00
2023-04-15T01:30:36.049Z,142.97
2023-04-15T01:33:04.328Z,141.27
2023-04-15T01:35:33.377Z,145.37
2023-04-15T01:38:07.477Z,133.73
2023-04-15T01:40:37.928Z,142.40
2023-04-15T01:43:06.366Z,148.23
2023-04-15T01:45:34.912Z,142.13
2023-04-15T01:48:05.952Z,147.27
2023-04-15T01:50:36.799Z,148.47
2023-04-15T01:53:05.273Z,147.73
2023-04-15T01:55:33.857Z,149.63
2023-04-15T01:58:03.487Z,144.53
2023-04-15T02:00:32.667Z,142.17
2023-04-15T02:03:01.279Z,145.73
2023-04-15T02:05:30.447Z,141.00
2023-04-15T02:07:58.885Z,150.03
2023-04-15T02:10:27.463Z,143.00
2023-04-15T02:12:55.836Z,151.63
2023-04-15T02:15:25.982Z,141.60
2023-04-15T02:17:55.410Z,143.47
2023-04-15T02:20:24.355Z,146.73
2023-04-15T02:22:52.783Z,140.00
2023-04-15T02:25:21.528Z,135.77
2023-04-15T02:27:49.923Z,140.10
2023-04-15T02:30:19.178Z,135.77
2023-04-15T02:32:48.838Z,146.93
2023-04-15T02:35:19.778Z,135.03
2023-04-15T02:37:48.132Z,135.60
2023-04-15T02:40:17.220Z,133.43
2023-04-15T02:42:45.586Z,141.57
2023-04-15T02:45:18.139Z,134.47
2023-04-15T02:47:47.946Z,145.20
2023-04-15T02:50:17.210Z,136.77
2023-04-15T02:52:45.957Z,140.87
2023-04-15T02:55:14.888Z,137.83
2023-04-15T02:57:43.306Z,144.73
2023-04-15T03:00:14.148Z,176.07
2023-04-15T03:02:45.548Z,144.90
2023-04-15T03:05:16.229Z,136.00
2023-04-15T03:07:52.620Z,143.10
2023-04-15T03:10:22.281Z,146.60
2023-04-15T03:12:50.802Z,152.17
2023-04-15T03:15:21.612Z,151.27
2023-04-15T03:17:53.357Z,142.00
2023-04-15T03:20:23.507Z,145.63
2023-04-15T03:22:51.912Z,142.93
2023-04-15T03:25:22.353Z,151.00
2023-04-15T03:27:51.060Z,151.77
2023-04-15T03:30:19.737Z,151.67
2023-04-15T03:32:48.120Z,154.27
2023-04-15T03:35:17.267Z,155.93
2023-04-15T03:37:49.104Z,153.30
2023-04-15T03:40:18.057Z,148.23
2023-04-15T03:42:46.425Z,153.50
2023-04-15T03:45:15.149Z,149.80
2023-04-15T03:47:43.480Z,148.30
2023-04-15T03:50:12.514Z,154.23
2023-04-15T03:52:40.717Z,154.60
2023-04-15T03:55:11.256Z,154.33
2023-04-15T03:57:39.785Z,156.00
2023-04-15T04:00:10.686Z,149.90
2023-04-15T04:02:42.177Z,152.27
2023-04-15T04:05:11.285Z,166.77
2023-04-15T04:07:39.710Z,149.73
2023-04-15T04:10:10.667Z,151.03
2023-04-15T04:12:39.048Z,156.80
2023-04-15T04:15:09.307Z,154.60
2023-04-15T04:17:37.817Z,157.17
2023-04-15T04:20:08.213Z,158.73
2023-04-15T04:22:39.185Z,155.50
2023-04-15T04:25:11.178Z,164.77
2023-04-15T04:27:39.562Z,160.93
2023-04-15T04:30:09.719Z,147.67
2023-04-15T04:32:38.109Z,161.97
2023-04-15T04:35:07.157Z,156.73
2023-04-15T04:37:35.673Z,152.40
2023-04-15T04:40:04.939Z,157.17
2023-04-15T04:42:34.614Z,162.37
2023-04-15T04:45:03.249Z,153.13
2023-04-15T04:47:31.809Z,171.63
2023-04-15T04:50:00.844Z,160.23
2023-04-15T04:52:29.142Z,156.73
2023-04-15T04:54:57.514Z,157.93
2023-04-15T04:57:25.746Z,163.67
2023-04-15T04:59:55.942Z,164.00
2023-04-15T05:02:27.245Z,162.13
2023-04-15T05:04:56.166Z,160.03
2023-04-15T05:07:24.472Z,162.17
2023-04-15T05:09:53.241Z,171.03
2023-04-15T05:12:21.644Z,160.30
2023-04-15T05:14:50.143Z,159.23
2023-04-15T05:17:19.863Z,158.60
2023-04-15T05:19:48.990Z,158.10
2023-04-15T05:22:17.324Z,159.10
2023-04-15T05:24:45.959Z,155.70
2023-04-15T05:27:14.271Z,153.43
2023-04-15T05:29:42.876Z,155.60
2023-04-15T05:32:11.476Z,164.27
2023-04-15T05:34:41.748Z,160.67
2023-04-15T05:37:10.070Z,155.83
2023-04-15T05:39:38.722Z,157.37
2023-04-15T05:42:07.053Z,159.47
2023-04-15T05:44:35.650Z,161.40
2023-04-15T05:47:05.935Z,160.33
2023-04-15T05:49:34.511Z,162.17
2023-04-15T05:52:04.000Z,154.87
2023-04-15T05:54:32.503Z,161.77
2023-04-15T05:57:00.980Z,149.17
2023-04-15T05:59:29.746Z,167.37
2023-04-15T06:01:58.214Z,158.53
2023-04-15T06:04:26.995Z,150.20
2023-04-15T06:06:55.691Z,153.97
2023-04-15T06:09:25.564Z,154.70
2023-04-15T06:11:54.126Z,157.23
2023-04-15T06:14:22.603Z,152.87
2023-04-15T06:16:51.270Z,151.47
2023-04-15T06:19:20.493Z,154.93
2023-04-15T06:21:48.964Z,155.77
2023-04-15T06:24:18.079Z,146.07
2023-04-15T06:26:48.437Z,148.83
2023-04-15T06:29:17.335Z,147.80
2023-04-15T06:31:45.912Z,158.47
2023-04-15T06:34:14.804Z,149.80
2023-04-15T06:36:43.001Z,148.13
2023-04-15T06:39:11.610Z,148.30
2023-04-15T06:41:40.077Z,145.23
2023-04-15T06:44:10.181Z,144.43
2023-04-15T06:46:38.466Z,153.50
2023-04-15T06:49:07.038Z,148.37
2023-04-15T06:51:36.199Z,150.60
2023-04-15T06:54:06.166Z,152.73
2023-04-15T06:56:34.913Z,144.67
2023-04-15T06:59:03.656Z,146.97
2023-04-15T07:01:33.440Z,143.50
2023-04-15T07:04:02.113Z,153.27
2023-04-15T07:06:30.417Z,158.37
2023-04-15T07:08:59.603Z,149.60
2023-04-15T07:11:28.268Z,155.37
2023-04-15T07:13:56.802Z,157.90
2023-04-15T07:16:27.087Z,149.60
2023-04-15T07:18:58.321Z,148.07
2023-04-15T07:21:27.649Z,155.33
2023-04-15T07:23:56.279Z,149.50
2023-04-15T07:26:24.804Z,152.50
2023-04-15T07:28:53.188Z,151.87
2023-04-15T07:31:21.381Z,157.23
2023-04-15T07:33:50.135Z,153.63
2023-04-15T07:36:19.747Z,146.70
2023-04-15T07:38:48.427Z,155.33
2023-04-15T07:41:16.811Z,150.73
2023-04-15T07:43:45.364Z,144.40
2023-04-15T07:46:13.538Z,163.27
2023-04-15T07:48:42.700Z,142.63
2023-04-15T07:51:12.910Z,144.97
2023-04-15T07:53:43.108Z,156.70
2023-04-15T07:56:11.390Z,146.47
2023-04-15T07:58:39.938Z,141.00
2023-04-15T08:01:08.544Z,143.70
2023-04-15T08:03:37.658Z,150.77
2023-04-15T08:06:06.655Z,149.33
2023-04-15T08:08:35.678Z,147.30
2023-04-15T08:11:05.370Z,148.90
2023-04-15T08:13:33.943Z,153.37
2023-04-15T08:16:24.485Z,147.03
2023-04-15T08:18:56.421Z,148.50
2023-04-15T08:21:25.230Z,150.97
2023-04-15T08:23:54.841Z,142.20
2023-04-15T08:26:24.417Z,142.03
2023-04-15T08:28:53.181Z,151.57
2023-04-15T08:31:21.979Z,138.73
2023-04-15T08:33:52.110Z,145.40
2023-04-15T08:36:21.082Z,141.47
2023-04-15T08:38:49.965Z,138.73
2023-04-15T08:41:23.411Z,139.83
2023-04-15T08:43:58.478Z,148.13
2023-04-15T08:46:27.334Z,135.17
2023-04-15T08:48:58.501Z,144.60
2023-04-15T08:51:27.681Z,143.47
2023-04-15T08:53:56.535Z,142.47
2023-04-15T08:56:26.759Z,140.97
2023-04-15T08:58:57.210Z,141.73
2023-04-15T09:01:26.514Z,144.63
2023-04-15T09:03:55.686Z,140.73
2023-04-15T09:06:24.620Z,149.60
2023-04-15T09:08:53.973Z,139.67
2023-04-15T09:11:23.430Z,142.10
2023-04-15T09:13:52.567Z,144.00
2023-04-15T09:16:22.138Z,142.30
2023-04-15T09:18:50.824Z,138.43
2023-04-15T09:21:19.423Z,141.20
2023-04-15T09:23:58.518Z,146.97
2023-04-15T09:26:37.927Z,143.80
2023-04-15T09:29:09.181Z,148.93
2023-04-15T09:31:39.085Z,143.70
2023-04-15T09:34:08.190Z,140.73
2023-04-15T09:37:00.948Z,141.60
2023-04-15T09:39:29.762Z,143.67
2023-04-15T09:42:08.361Z,144.60
2023-04-15T09:44:36.986Z,146.43
2023-04-15T09:47:07.526Z,143.23
2023-04-15T09:49:36.188Z,141.00
2023-04-15T09:52:06.653Z,140.37
2023-04-15T09:54:37.046Z,136.07
2023-04-15T09:57:09.882Z,143.80
2023-04-15T09:59:38.576Z,136.00
2023-04-15T10:02:08.677Z,140.30
2023-04-15T10:04:41.525Z,142.03
2023-04-15T10:07:10.607Z,133.93
2023-04-15T10:09:40.344Z,138.13
2023-04-15T10:12:08.903Z,141.83
2023-04-15T10:14:39.580Z,135.87
2023-04-15T10:17:12.190Z,151.60
2023-04-15T10:19:42.383Z,137.73
2023-04-15T10:22:11.227Z,139.43
2023-04-15T10:24:41.244Z,135.50
2023-04-15T10:27:09.902Z,150.23
2023-04-15T10:29:38.919Z,135.57
2023-04-15T10:32:07.686Z,139.23
2023-04-15T10:34:38.740Z,135.47
2023-04-15T10:37:10.984Z,136.67
2023-04-15T10:39:41.921Z,151.03
2023-04-15T10:42:11.354Z,141.63
2023-04-15T10:44:42.702Z,144.43
2023-04-15T10:47:18.701Z,142.63
2023-04-15T10:49:50.343Z,137.90
2023-04-15T10:52:24.110Z,140.03
2023-04-15T10:55:04.025Z,137.77
2023-04-15T10:57:37.091Z,134.00
2023-04-15T11:00:13.891Z,138.63
2023-04-15T11:02:45.858Z,141.20
2023-04-15T11:05:17.366Z,145.47
2023-04-15T11:07:54.702Z,141.77
2023-04-15T11:10:54.824Z,135.93
2023-04-15T11:13:31.416Z,133.63
2023-04-15T11:16:02.587Z,136.37
2023-04-15T11:18:32.961Z,140.27
2023-04-15T11:21:07.880Z,137.07
2023-04-15T11:23:39.161Z,134.07
2023-04-15T11:26:12.424Z,140.87
2023-04-15T11:28:42.327Z,128.40
2023-04-15T11:31:12.703Z,139.70
2023-04-15T11:33:48.024Z,136.70
2023-04-15T11:36:17.987Z,138.23
2023-04-15T11:38:48.238Z,134.00
2023-04-15T11:41:21.119Z,137.77
2023-04-15T11:43:49.724Z,128.57
2023-04-15T11:46:18.508Z,141.83
2023-04-15T11:48:48.110Z,139.93
2023-04-15T11:51:18.627Z,142.43
2023-04-15T11:53:48.492Z,141.60
2023-04-15T11:56:21.449Z,138.17
2023-04-15T11:58:53.064Z,147.43
2023-04-15T12:01:21.750Z,138.27
2023-04-15T12:03:50.760Z,132.27
2023-04-15T12:06:21.917Z,136.60
2023-04-15T12:08:52.649Z,132.93
2023-04-15T12:11:21.971Z,130.20
2023-04-15T12:13:51.805Z,133.43
2023-04-15T12:16:20.945Z,136.97
2023-04-15T12:18:51.980Z,134.47
2023-04-15T12:21:22.598Z,134.23
2023-04-15T12:23:51.491Z,137.07
2023-04-15T12:26:28.523Z,135.23
2023-04-15T12:28:57.407Z,138.97
2023-04-15T12:31:26.016Z,131.93
2023-04-15T12:33:56.701Z,136.43
2023-04-15T12:36:27.229Z,139.70
2023-04-15T12:38:56.047Z,135.97
2023-04-15T12:41:25.391Z,132.90
2023-04-15T12:43:53.591Z,134.43
2023-04-15T12:46:22.126Z,138.30
2023-04-15T12:48:52.021Z,135.87
2023-04-15T12:51:21.332Z,131.87
2023-04-15T12:53:51.101Z,137.50
2023-04-15T12:56:19.888Z,135.93
2023-04-15T12:58:48.347Z,137.47
2023-04-15T13:01:16.939Z,141.47
2023-04-15T13:03:45.471Z,136.77
2023-04-15T13:06:14.274Z,131.33
2023-04-15T13:08:51.261Z,138.97
2023-04-15T13:11:27.555Z,140.33
2023-04-15T13:13:56.959Z,132.43
2023-04-15T13:16:25.744Z,139.40
2023-04-15T13:18:54.047Z,131.97
2023-04-15T13:21:22.833Z,136.17
2023-04-15T13:23:51.504Z,138.40
2023-04-15T13:26:20.487Z,144.40
2023-04-15T13:28:49.943Z,139.70
2023-04-15T13:31:18.677Z,146.33
2023-04-15T13:33:47.354Z,138.23
2023-04-15T13:36:15.896Z,137.03
2023-04-15T13:38:44.260Z,138.80
2023-04-15T13:41:13.326Z,134.23
2023-04-15T13:43:41.709Z,130.23
2023-04-15T13:46:11.821Z,137.60
2023-04-15T13:48:40.056Z,133.23
2023-04-15T13:51:08.813Z,135.60
2023-04-15T13:53:39.027Z,136.80
2023-04-15T13:56:08.746Z,142.70
2023-04-15T13:58:37.823Z,137.90
2023-04-15T14:01:07.638Z,148.63
2023-04-15T14:03:37.727Z,137.03
2023-04-15T14:06:07.704Z,138.43
2023-04-15T14:08:36.008Z,150.07
2023-04-15T14:11:04.410Z,139.67
2023-04-15T14:13:32.761Z,150.50
2023-04-15T14:16:01.554Z,135.40
2023-04-15T14:18:30.413Z,135.53
2023-04-15T14:21:00.065Z,133.27
2023-04-15T14:23:29.012Z,144.37
2023-04-15T14:25:57.382Z,147.93
2023-04-15T14:28:26.386Z,151.90
2023-04-15T14:30:54.732Z,148.00
2023-04-15T14:33:23.378Z,136.97
2023-04-15T14:35:52.460Z,136.80
2023-04-15T14:38:22.765Z,141.23
2023-04-15T14:40:51.187Z,153.57
2023-04-15T14:43:19.982Z,146.50
2023-04-15T14:45:48.266Z,146.83
2023-04-15T14:48:17.458Z,149.33
2023-04-15T14:50:45.826Z,136.37
2023-04-15T14:53:14.466Z,134.85
2023-04-15T14:55:45.057Z,147.33
2023-04-15T14:58:13.518Z,140.10
2023-04-15T15:00:44.400Z,145.03
2023-04-15T15:03:13.656Z,148.80
2023-04-15T15:05:42.493Z,143.03
2023-04-15T15:08:11.396Z,140.87
2023-04-15T15:10:49.307Z,144.20
2023-04-15T15:13:20.074Z,146.50
2023-04-15T15:15:50.209Z,138.47
2023-04-15T15:18:19.650Z,139.30
2023-04-15T15:20:48.597Z,143.77
2023-04-15T15:23:17.242Z,140.32
2023-04-15T15:25:46.920Z,146.03
2023-04-15T15:28:15.588Z,152.33
2023-04-15T15:30:45.275Z,147.07
2023-04-15T15:33:13.763Z,146.00
2023-04-15T15:35:42.110Z,141.93
2023-04-15T15:38:13.443Z,138.57
2023-04-15T15:40:41.708Z,150.87
2023-04-15T15:43:10.332Z,137.53
2023-04-15T15:45:38.682Z,201.67
2023-04-15T15:48:08.724Z,141.37
2023-04-15T15:50:37.072Z,161.37
2023-04-15T15:53:06.059Z,191.90
2023-04-15T15:55:34.725Z,204.37
2023-04-15T15:58:03.229Z,191.93
2023-04-15T16:00:31.585Z,179.50
2023-04-15T16:05:33.282Z,152.00
2023-04-15T16:08:01.884Z,145.10
2023-04-15T16:10:30.806Z,141.17
2023-04-15T16:12:59.416Z,141.57
2023-04-15T16:15:27.588Z,139.40
2023-04-15T16:17:55.987Z,139.60
2023-04-15T16:20:24.481Z,141.63
2023-04-15T16:22:54.500Z,142.50
2023-04-15T16:25:22.837Z,139.87
2023-04-15T16:28:01.378Z,149.17
2023-04-15T16:30:36.911Z,143.17
2023-04-15T16:33:05.773Z,149.53
2023-04-15T16:35:34.906Z,144.53
2023-04-15T16:38:06.372Z,136.40
2023-04-15T16:40:34.922Z,143.17
2023-04-15T16:43:04.495Z,140.10
2023-04-15T16:45:32.898Z,197.33
2023-04-15T16:48:01.412Z,151.63
2023-04-15T16:50:30.022Z,143.50
2023-04-15T16:52:58.423Z,146.07
2023-04-15T16:55:28.205Z,142.57
2023-04-15T16:58:02.562Z,144.90
2023-04-15T17:00:32.053Z,137.57
2023-04-15T17:03:01.535Z,148.60
2023-04-15T17:05:30.588Z,158.00
2023-04-15T17:07:59.571Z,145.53
2023-04-15T17:10:29.429Z,146.57
2023-04-15T17:12:58.976Z,144.53
2023-04-15T17:15:27.816Z,145.33
2023-04-15T17:17:56.396Z,141.77
2023-04-15T17:20:24.627Z,143.20
2023-04-15T17:22:53.853Z,139.77
2023-04-15T17:25:22.229Z,139.23
2023-04-15T17:27:52.170Z,143.97
2023-04-15T17:30:20.756Z,145.00
2023-04-15T17:32:49.292Z,150.20
2023-04-15T17:35:17.606Z,147.70
2023-04-15T17:37:47.557Z,147.67
2023-04-15T17:40:15.963Z,142.93
2023-04-15T17:42:44.483Z,149.53
2023-04-15T17:45:15.315Z,142.03
2023-04-15T17:47:43.957Z,143.97
2023-04-15T17:50:12.227Z,146.80
2023-04-15T17:52:40.788Z,150.53
2023-04-15T17:55:09.667Z,142.33
2023-04-15T17:57:38.328Z,138.57
2023-04-15T18:00:08.834Z,147.13
2023-04-15T18:02:42.693Z,142.57
2023-04-15T18:05:11.657Z,148.77
2023-04-15T18:07:40.522Z,150.63
2023-04-15T18:10:10.174Z,150.70
2023-04-15T18:12:38.993Z,140.47
2023-04-15T18:15:09.449Z,148.93
2023-04-15T18:17:38.174Z,146.40
2023-04-15T18:20:08.939Z,138.90
2023-04-15T18:22:37.561Z,148.47
2023-04-15T18:25:06.863Z,139.83
2023-04-15T18:27:36.078Z,139.63
2023-04-15T18:30:04.676Z,149.90
2023-04-15T18:32:33.245Z,144.37
2023-04-15T18:35:02.041Z,149.70
2023-04-15T18:37:32.887Z,141.27
2023-04-15T18:40:01.358Z,140.60
2023-04-15T18:42:29.902Z,139.13
2023-04-15T18:44:58.477Z,135.23
2023-04-15T18:47:28.007Z,139.03
2023-04-15T18:49:58.117Z,143.77
2023-04-15T18:52:26.593Z,141.03
2023-04-15T18:54:56.263Z,145.10
2023-04-15T18:57:25.971Z,143.87
2023-04-15T18:59:59.458Z,149.43
2023-04-15T19:02:28.231Z,149.40
2023-04-15T19:04:56.894Z,140.10
2023-04-15T19:07:25.486Z,140.87
2023-04-15T19:09:55.908Z,148.77
2023-04-15T19:12:24.649Z,155.67
2023-04-15T19:14:52.972Z,153.40
2023-04-15T19:17:21.665Z,140.93
2023-04-15T19:19:50.170Z,150.20
2023-04-15T19:22:18.971Z,147.93
2023-04-15T19:24:47.361Z,147.93
2023-04-15T19:27:17.347Z,139.60
2023-04-15T19:29:45.627Z,151.13
2023-04-15T19:32:14.662Z,144.90
2023-04-15T19:34:43.095Z,152.90
2023-04-15T19:37:12.699Z,144.07
2023-04-15T19:39:40.918Z,147.60
2023-04-15T19:42:09.435Z,151.70
2023-04-15T19:44:42.660Z,146.20
2023-04-15T19:47:11.593Z,144.67
2023-04-15T19:49:40.110Z,146.60
2023-04-15T19:52:08.716Z,146.97
2023-04-15T19:54:37.082Z,139.57
2023-04-15T19:57:05.884Z,154.17
2023-04-15T19:59:34.538Z,139.23
2023-04-15T20:02:04.644Z,143.80
2023-04-15T20:04:33.142Z,155.77
2023-04-15T20:07:01.748Z,148.80
2023-04-15T20:09:29.935Z,147.93
2023-04-15T20:12:06.170Z,149.37
2023-04-15T20:14:46.939Z,146.03
2023-04-15T20:17:17.212Z,148.87
2023-04-15T20:19:45.486Z,152.37
2023-04-15T20:22:14.186Z,148.47
2023-04-15T20:24:42.524Z,142.67
2023-04-15T20:27:11.053Z,148.37
2023-04-15T20:29:39.297Z,144.53
2023-04-15T20:32:11.279Z,152.63
2023-04-15T20:34:41.249Z,150.47
2023-04-15T20:37:09.854Z,145.97
2023-04-15T20:39:38.106Z,146.77
2023-04-15T20:42:10.090Z,157.77
2023-04-15T20:44:38.634Z,151.77
2023-04-15T20:47:07.997Z,147.57
2023-04-15T20:49:36.731Z,150.40
2023-04-15T20:52:08.716Z,154.93
2023-04-15T20:54:36.995Z,148.80
2023-04-15T20:57:05.530Z,154.97
2023-04-15T20:59:34.860Z,158.03
2023-04-15T21:02:03.854Z,150.43
2023-04-15T21:04:32.695Z,159.90
2023-04-15T21:07:01.261Z,144.37
2023-04-15T21:09:30.877Z,152.40
2023-04-15T21:12:01.561Z,148.87
2023-04-15T21:14:30.952Z,144.47
2023-04-15T21:16:59.484Z,150.17
2023-04-15T21:19:27.653Z,158.47
2023-04-15T21:21:56.197Z,160.40
2023-04-15T21:24:24.460Z,154.30
2023-04-15T21:26:54.570Z,152.10
2023-04-15T21:29:23.002Z,155.37
2023-04-15T21:31:51.606Z,148.17
2023-04-15T21:34:20.006Z,156.77
2023-04-15T21:36:48.519Z,158.77
2023-04-15T21:39:17.082Z,150.20
2023-04-15T21:41:45.795Z,150.07
2023-04-15T21:44:15.444Z,153.10
2023-04-15T21:46:45.573Z,149.47
2023-04-15T21:49:14.288Z,151.50
2023-04-15T21:51:42.783Z,156.47
2023-04-15T21:54:11.000Z,152.73
2023-04-15T21:56:39.633Z,151.07
2023-04-15T21:59:08.090Z,154.60
2023-04-15T22:01:38.004Z,154.70
2023-04-15T22:04:07.590Z,153.87
2023-04-15T22:06:36.379Z,157.30
2023-04-15T22:09:04.874Z,154.37
2023-04-15T22:11:33.446Z,151.87
2023-04-15T22:14:01.887Z,156.10
2023-04-15T22:16:30.717Z,163.00
2023-04-15T22:19:00.485Z,155.03
2023-04-15T22:21:28.964Z,157.20
2023-04-15T22:24:31.598Z,157.60
2023-04-15T22:26:45.902Z,155.50
2023-04-15T22:29:14.350Z,155.40
2023-04-15T22:31:43.789Z,161.50
2023-04-15T22:34:14.849Z,161.37
2023-04-15T22:36:43.136Z,157.50
2023-04-15T22:39:11.753Z,156.13
2023-04-15T22:41:40.266Z,161.50
2023-04-15T22:44:08.988Z,161.27
2023-04-15T22:46:38.294Z,158.50
2023-04-15T22:49:09.254Z,161.23
2023-04-15T22:51:38.996Z,154.33
2023-04-15T22:54:07.527Z,156.07
2023-04-15T22:56:36.083Z,152.37
2023-04-15T22:59:04.569Z,151.07
2023-04-15T23:01:32.877Z,151.73
2023-04-15T23:04:08.788Z,150.10
2023-04-15T23:06:51.140Z,163.23
2023-04-15T23:09:19.751Z,150.60
2023-04-15T23:11:48.616Z,162.97
2023-04-15T23:14:17.650Z,167.00
2023-04-15T23:16:46.337Z,155.70
2023-04-15T23:19:15.736Z,158.93
2023-04-15T23:21:44.166Z,159.53
2023-04-15T23:24:14.408Z,161.83
2023-04-15T23:26:42.644Z,158.63
2023-04-15T23:29:11.622Z,169.53
2023-04-15T23:31:41.487Z,153.20
2023-04-15T23:34:10.507Z,155.93
2023-04-15T23:36:38.733Z,156.63
2023-04-15T23:39:07.537Z,163.90
2023-04-15T23:41:37.500Z,153.70
2023-04-15T23:44:07.153Z,153.53
2023-04-15T23:46:35.466Z,161.77
2023-04-15T23:49:04.021Z,153.53
2023-04-15T23:51:32.388Z,155.73
2023-04-15T23:54:00.965Z,155.50
2023-04-15T23:56:29.298Z,155.10
2023-04-15T23:58:59.374Z,155.13
